createdAt,value
2023-01-08T00:00:13.309Z,3.89
2023-01-08T00:02:40.179Z,4.06
2023-01-08T00:05:07.604Z,3.93
2023-01-08T00:07:38.389Z,3.99
2023-01-08T00:10:06.440Z,4.05
2023-01-08T00:12:33.193Z,4.01
2023-01-08T00:15:00.092Z,3.64
2023-01-08T00:17:29.042Z,3.70
2023-01-08T00:19:55.866Z,3.70
2023-01-08T00:22:23.760Z,4.01
2023-01-08T00:24:50.470Z,3.89
2023-01-08T00:27:17.173Z,3.96
2023-01-08T00:29:44.354Z,4.03
2023-01-08T00:32:11.257Z,3.81
2023-01-08T00:34:39.665Z,4.00
2023-01-08T00:37:06.385Z,3.83
2023-01-08T00:39:35.469Z,3.89
2023-01-08T00:42:04.236Z,4.10
2023-01-08T00:44:31.036Z,3.87
2023-01-08T00:46:57.766Z,3.83
2023-01-08T00:49:25.874Z,3.62
2023-01-08T00:51:54.385Z,3.47
2023-01-08T00:54:23.415Z,3.64
2023-01-08T00:56:51.319Z,3.75
2023-01-08T00:59:18.131Z,3.90
2023-01-08T01:01:49.534Z,3.62
2023-01-08T01:04:16.404Z,3.67
2023-01-08T01:06:44.301Z,3.71
2023-01-08T01:09:12.327Z,3.25
2023-01-08T01:11:39.317Z,3.53
2023-01-08T01:14:06.091Z,3.67
2023-01-08T01:16:33.408Z,3.44
2023-01-08T01:19:00.356Z,3.46
2023-01-08T01:21:30.795Z,3.45
2023-01-08T01:23:59.269Z,3.48
2023-01-08T01:26:27.291Z,3.35
2023-01-08T01:28:56.868Z,3.53
2023-01-08T01:31:24.975Z,3.40
2023-01-08T01:33:52.470Z,3.58
2023-01-08T01:36:20.233Z,3.41
2023-01-08T01:38:48.175Z,3.54
2023-01-08T01:41:25.486Z,3.38
2023-01-08T01:44:23.504Z,3.52
2023-01-08T01:47:24.503Z,3.32
2023-01-08T01:50:14.520Z,3.40
2023-01-08T01:52:46.136Z,3.40
2023-01-08T01:55:26.243Z,3.49
2023-01-08T01:58:08.766Z,3.39
2023-01-08T02:00:39.836Z,3.21
2023-01-08T02:03:08.622Z,3.49
2023-01-08T02:05:55.787Z,3.55
2023-01-08T02:08:47.637Z,2.94
2023-01-08T02:11:22.491Z,3.37
2023-01-08T02:13:54.333Z,3.42
2023-01-08T02:16:28.169Z,3.40
2023-01-08T02:19:01.752Z,3.06
2023-01-08T02:21:31.355Z,3.31
2023-01-08T02:24:08.413Z,3.23
2023-01-08T02:26:36.547Z,2.92
2023-01-08T02:29:15.403Z,3.17
2023-01-08T02:31:42.889Z,3.10
2023-01-08T02:34:10.195Z,3.00
2023-01-08T02:36:53.499Z,2.57
2023-01-08T02:39:20.168Z,2.58
2023-01-08T02:41:53.159Z,2.23
2023-01-08T02:44:26.867Z,2.69
2023-01-08T02:46:56.359Z,2.96
2023-01-08T02:49:24.341Z,3.00
2023-01-08T02:51:54.108Z,2.92
2023-01-08T02:54:23.738Z,3.01
2023-01-08T02:56:53.601Z,3.02
2023-01-08T02:59:24.471Z,2.92
2023-01-08T03:01:52.384Z,2.92
2023-01-08T03:04:20.485Z,2.71
2023-01-08T03:06:48.588Z,3.10
2023-01-08T03:09:16.288Z,3.08
2023-01-08T03:11:50.869Z,3.02
2023-01-08T03:14:23.286Z,3.15
2023-01-08T03:16:55.939Z,3.35
2023-01-08T03:19:51.833Z,3.45
2023-01-08T03:22:19.393Z,3.34
2023-01-08T03:24:49.503Z,3.17
2023-01-08T03:27:18.442Z,3.39
2023-01-08T03:29:46.856Z,3.39
2023-01-08T03:32:16.249Z,3.23
2023-01-08T03:34:44.273Z,3.02
2023-01-08T03:37:11.821Z,3.42
2023-01-08T03:39:42.242Z,3.24
2023-01-08T03:42:10.892Z,3.27
2023-01-08T03:44:37.678Z,2.16
2023-01-08T03:47:04.986Z,2.93
2023-01-08T03:49:32.179Z,3.23
2023-01-08T03:51:58.847Z,3.06
2023-01-08T03:54:29.854Z,2.84
2023-01-08T03:56:56.863Z,3.11
2023-01-08T03:59:23.889Z,2.63
2023-01-08T04:01:51.042Z,3.02
2023-01-08T04:04:18.136Z,2.80
2023-01-08T04:06:44.930Z,2.19
2023-01-08T04:09:11.595Z,2.77
2023-01-08T04:11:38.332Z,2.52
2023-01-08T04:14:05.041Z,2.90
2023-01-08T04:16:31.950Z,3.00
2023-01-08T04:18:58.627Z,2.81
2023-01-08T04:21:25.394Z,2.80
2023-01-08T04:23:52.093Z,2.91
2023-01-08T04:26:18.797Z,2.59
2023-01-08T04:28:45.442Z,2.77
2023-01-08T04:31:12.234Z,2.97
2023-01-08T04:33:39.076Z,2.93
2023-01-08T04:36:06.261Z,2.60
2023-01-08T04:38:35.065Z,2.75
2023-01-08T04:41:02.459Z,2.87
2023-01-08T04:43:30.513Z,2.87
2023-01-08T04:46:00.882Z,2.72
2023-01-08T04:48:28.312Z,2.74
2023-01-08T04:50:55.295Z,2.58
2023-01-08T04:53:24.934Z,2.24
2023-01-08T04:55:51.616Z,2.82
2023-01-08T04:58:18.353Z,2.91
2023-01-08T05:00:45.052Z,2.73
2023-01-08T05:03:11.843Z,2.87
2023-01-08T05:05:38.903Z,2.96
2023-01-08T05:08:05.640Z,2.99
2023-01-08T05:10:32.363Z,3.13
2023-01-08T05:13:01.108Z,2.68
2023-01-08T05:15:28.233Z,2.93
2023-01-08T05:17:59.046Z,3.01
2023-01-08T05:20:26.128Z,3.15
2023-01-08T05:22:52.907Z,3.23
2023-01-08T05:25:19.760Z,3.15
2023-01-08T05:27:47.158Z,3.26
2023-01-08T05:30:14.024Z,3.22
2023-01-08T05:32:41.019Z,3.22
2023-01-08T05:35:08.063Z,3.27
2023-01-08T05:37:37.260Z,3.12
2023-01-08T05:40:04.432Z,3.04
2023-01-08T05:42:31.163Z,2.48
2023-01-08T05:44:57.886Z,2.76
2023-01-08T05:47:24.569Z,2.99
2023-01-08T05:49:51.378Z,2.96
2023-01-08T05:52:18.108Z,3.02
2023-01-08T05:54:45.032Z,2.96
2023-01-08T05:57:11.795Z,3.20
2023-01-08T05:59:38.517Z,3.59
2023-01-08T06:02:05.273Z,3.72
2023-01-08T06:04:32.033Z,3.61
2023-01-08T06:06:58.720Z,3.78
2023-01-08T06:09:25.467Z,3.67
2023-01-08T06:11:53.331Z,3.52
2023-01-08T06:14:20.079Z,3.65
2023-01-08T06:16:46.847Z,3.70
2023-01-08T06:19:13.591Z,3.49
2023-01-08T06:21:40.391Z,3.58
2023-01-08T06:24:07.115Z,2.98
2023-01-08T06:26:33.782Z,3.68
2023-01-08T06:29:00.748Z,3.51
2023-01-08T06:31:27.523Z,3.41
2023-01-08T06:33:54.234Z,3.38
2023-01-08T06:36:21.209Z,3.75
2023-01-08T06:38:48.081Z,3.40
2023-01-08T06:41:14.883Z,2.76
2023-01-08T06:43:43.793Z,2.84
2023-01-08T06:46:10.686Z,3.45
2023-01-08T06:48:37.796Z,3.84
2023-01-08T06:51:05.320Z,4.04
2023-01-08T06:53:36.136Z,4.19
2023-01-08T06:56:04.028Z,3.55
2023-01-08T06:58:30.861Z,3.63
2023-01-08T07:00:59.136Z,3.46
2023-01-08T07:03:27.868Z,3.24
2023-01-08T07:05:55.039Z,4.06
2023-01-08T07:08:21.767Z,4.82
2023-01-08T07:10:48.777Z,5.21
2023-01-08T07:13:15.770Z,5.57
2023-01-08T07:15:42.892Z,5.74
2023-01-08T07:18:10.785Z,5.87
2023-01-08T07:20:37.776Z,6.36
2023-01-08T07:23:05.648Z,6.43
2023-01-08T07:25:32.842Z,6.70
2023-01-08T07:28:02.330Z,6.78
2023-01-08T07:30:30.649Z,7.16
2023-01-08T07:33:03.422Z,7.62
2023-01-08T07:35:30.447Z,7.94
2023-01-08T07:37:57.189Z,8.47
2023-01-08T07:40:24.008Z,8.95
2023-01-08T07:43:00.249Z,9.22
2023-01-08T07:45:27.743Z,9.52
2023-01-08T07:47:54.559Z,9.36
2023-01-08T07:50:21.292Z,9.52
2023-01-08T07:52:48.753Z,9.80
2023-01-08T07:55:15.734Z,9.65
2023-01-08T07:57:42.558Z,10.07
2023-01-08T08:00:09.730Z,10.19
2023-01-08T08:02:36.683Z,10.66
2023-01-08T08:05:03.632Z,11.33
2023-01-08T08:07:33.602Z,11.92
2023-01-08T08:10:00.480Z,11.96
2023-01-08T08:12:27.367Z,11.86
2023-01-08T08:14:54.036Z,12.32
2023-01-08T08:17:20.959Z,12.31
2023-01-08T08:19:47.692Z,12.47
2023-01-08T08:22:14.476Z,12.58
2023-01-08T08:24:41.346Z,12.56
2023-01-08T08:27:08.148Z,12.95
2023-01-08T08:29:34.960Z,13.07
2023-01-08T08:32:01.718Z,13.13
2023-01-08T08:34:28.414Z,12.47
2023-01-08T08:36:55.139Z,12.65
2023-01-08T08:39:21.931Z,12.55
2023-01-08T08:41:48.768Z,13.04
2023-01-08T08:44:15.490Z,13.48
2023-01-08T08:46:43.313Z,13.32
2023-01-08T08:49:10.093Z,13.60
2023-01-08T08:51:39.675Z,14.03
2023-01-08T08:54:06.371Z,14.53
2023-01-08T08:56:33.117Z,14.99
2023-01-08T08:58:59.839Z,15.39
2023-01-08T09:01:26.599Z,15.86
2023-01-08T09:03:53.431Z,16.02
2023-01-08T09:06:20.126Z,14.89
2023-01-08T09:08:46.790Z,13.28
2023-01-08T09:11:14.541Z,13.30
2023-01-08T09:13:41.508Z,14.10
2023-01-08T09:16:08.388Z,14.72
2023-01-08T09:18:35.138Z,15.33
2023-01-08T09:21:06.160Z,15.96
2023-01-08T09:23:33.439Z,16.38
2023-01-08T09:26:01.148Z,16.61
2023-01-08T09:28:27.905Z,15.12
2023-01-08T09:30:54.708Z,15.67
2023-01-08T09:33:21.473Z,15.17
2023-01-08T09:35:50.712Z,15.76
2023-01-08T09:38:17.532Z,15.50
2023-01-08T09:40:47.970Z,14.80
2023-01-08T09:43:19.709Z,15.40
2023-01-08T09:45:50.253Z,15.62
2023-01-08T09:48:18.219Z,15.52
2023-01-08T09:50:45.165Z,15.06
2023-01-08T09:53:14.245Z,14.05
2023-01-08T09:55:41.486Z,14.16
2023-01-08T09:58:27.035Z,12.85
2023-01-08T10:00:54.481Z,12.66
2023-01-08T10:03:23.182Z,12.24
2023-01-08T10:05:51.735Z,12.99
2023-01-08T10:08:18.801Z,12.74
2023-01-08T10:10:46.830Z,11.63
2023-01-08T10:13:14.363Z,12.42
2023-01-08T10:15:44.215Z,12.18
2023-01-08T10:18:12.450Z,12.23
2023-01-08T10:20:39.599Z,11.92
2023-01-08T10:23:14.187Z,11.89
2023-01-08T10:25:48.975Z,12.07
2023-01-08T10:28:23.142Z,11.88
2023-01-08T10:30:50.921Z,11.76
2023-01-08T10:33:25.161Z,12.05
2023-01-08T10:35:54.048Z,12.34
2023-01-08T10:38:26.810Z,12.06
2023-01-08T10:40:53.652Z,12.29
2023-01-08T10:43:21.391Z,12.72
2023-01-08T10:46:00.681Z,12.31
2023-01-08T10:48:32.889Z,12.90
2023-01-08T10:51:18.762Z,12.49
2023-01-08T10:53:45.639Z,12.31
2023-01-08T10:56:20.116Z,12.55
2023-01-08T10:58:46.997Z,12.30
2023-01-08T11:01:32.371Z,12.78
2023-01-08T11:04:01.411Z,12.78
2023-01-08T11:06:31.833Z,12.86
2023-01-08T11:09:00.483Z,13.31
2023-01-08T11:11:34.546Z,13.36
2023-01-08T11:14:04.454Z,13.55
2023-01-08T11:16:32.214Z,13.90
2023-01-08T11:18:58.920Z,14.39
2023-01-08T11:21:27.276Z,14.62
2023-01-08T11:24:23.310Z,14.92
2023-01-08T11:27:10.238Z,14.99
2023-01-08T11:29:55.940Z,15.29
2023-01-08T11:32:40.470Z,15.44
2023-01-08T11:35:25.967Z,15.64
2023-01-08T11:37:54.142Z,15.52
2023-01-08T11:40:30.109Z,15.65
2023-01-08T11:43:15.298Z,15.85
2023-01-08T11:45:57.526Z,16.22
2023-01-08T11:48:24.275Z,16.72
2023-01-08T11:51:05.053Z,16.62
2023-01-08T11:53:37.756Z,16.52
2023-01-08T11:56:04.609Z,16.64
2023-01-08T11:58:50.265Z,16.63
2023-01-08T12:01:26.217Z,16.58
2023-01-08T12:03:52.950Z,16.43
2023-01-08T12:06:27.823Z,15.94
2023-01-08T12:08:57.631Z,16.09
2023-01-08T12:11:28.169Z,15.96
2023-01-08T12:14:14.392Z,16.08
2023-01-08T12:16:41.135Z,16.25
2023-01-08T12:19:26.456Z,16.26
2023-01-08T12:22:08.333Z,16.19
2023-01-08T12:24:50.271Z,16.52
2023-01-08T12:27:20.468Z,16.18
2023-01-08T12:29:48.409Z,15.80
2023-01-08T12:32:38.236Z,15.82
2023-01-08T12:35:15.378Z,16.46
2023-01-08T12:37:45.748Z,15.87
2023-01-08T12:40:14.762Z,15.72
2023-01-08T12:42:50.288Z,15.75
2023-01-08T12:45:27.392Z,15.81
2023-01-08T12:48:00.738Z,15.44
2023-01-08T12:50:45.183Z,15.58
2023-01-08T12:53:11.901Z,15.71
2023-01-08T12:55:48.176Z,15.36
2023-01-08T12:58:15.038Z,15.61
2023-01-08T13:00:44.764Z,16.04
2023-01-08T13:03:15.159Z,15.97
2023-01-08T13:05:43.797Z,16.12
2023-01-08T13:08:29.517Z,16.09
2023-01-08T13:10:56.998Z,16.42
2023-01-08T13:13:29.710Z,16.61
2023-01-08T13:16:11.624Z,16.80
2023-01-08T13:18:38.950Z,16.93
2023-01-08T13:21:06.429Z,17.17
2023-01-08T13:23:35.341Z,17.35
2023-01-08T13:26:06.397Z,17.22
2023-01-08T13:28:42.730Z,17.47
2023-01-08T13:31:21.495Z,17.69
2023-01-08T13:33:49.423Z,17.62
2023-01-08T13:36:19.586Z,17.35
2023-01-08T13:38:46.382Z,17.34
2023-01-08T13:41:27.007Z,17.21
2023-01-08T13:44:14.035Z,16.90
2023-01-08T13:46:41.136Z,16.82
2023-01-08T13:49:12.001Z,17.02
2023-01-08T13:51:46.222Z,16.76
2023-01-08T13:54:13.156Z,16.68
2023-01-08T13:56:48.540Z,16.92
2023-01-08T13:59:24.636Z,16.30
2023-01-08T14:01:57.716Z,16.44
2023-01-08T14:04:24.930Z,15.86
2023-01-08T14:06:51.825Z,16.33
2023-01-08T14:09:25.635Z,16.51
2023-01-08T14:11:58.215Z,16.34
2023-01-08T14:14:25.041Z,16.19
2023-01-08T14:16:53.372Z,16.43
2023-01-08T14:19:25.126Z,16.09
2023-01-08T14:21:54.341Z,16.06
2023-01-08T14:24:22.571Z,16.10
2023-01-08T14:26:53.664Z,15.95
2023-01-08T14:29:21.529Z,15.85
2023-01-08T14:31:55.053Z,16.05
2023-01-08T14:34:23.103Z,15.93
2023-01-08T14:36:51.797Z,15.87
2023-01-08T14:39:26.132Z,15.91
2023-01-08T14:42:13.373Z,15.71
2023-01-08T14:44:42.341Z,15.60
2023-01-08T14:47:20.114Z,15.76
2023-01-08T14:49:56.082Z,15.50
2023-01-08T14:52:23.059Z,15.33
2023-01-08T14:54:51.979Z,15.16
2023-01-08T14:57:19.328Z,15.13
2023-01-08T14:59:52.289Z,15.21
2023-01-08T15:02:23.885Z,15.13
2023-01-08T15:05:00.611Z,14.97
2023-01-08T15:07:27.868Z,14.78
2023-01-08T15:09:59.187Z,14.84
2023-01-08T15:12:27.318Z,15.11
2023-01-08T15:14:55.505Z,14.85
2023-01-08T15:17:24.153Z,14.64
2023-01-08T15:19:56.052Z,14.60
2023-01-08T15:22:26.272Z,14.85
2023-01-08T15:25:00.710Z,14.67
2023-01-08T15:27:28.176Z,14.93
2023-01-08T15:30:04.195Z,14.84
2023-01-08T15:32:34.878Z,14.96
2023-01-08T15:35:01.928Z,14.74
2023-01-08T15:37:30.557Z,14.71
2023-01-08T15:39:57.361Z,14.73
2023-01-08T15:42:51.001Z,14.92
2023-01-08T15:45:21.015Z,14.89
2023-01-08T15:47:47.940Z,14.86
2023-01-08T15:50:14.814Z,14.94
2023-01-08T15:52:43.050Z,14.89
2023-01-08T15:55:16.018Z,15.02
2023-01-08T15:57:43.005Z,14.81
2023-01-08T16:00:12.140Z,14.73
2023-01-08T16:02:44.910Z,14.84
2023-01-08T16:05:13.324Z,14.63
2023-01-08T16:07:40.114Z,14.45
2023-01-08T16:10:07.112Z,14.12
2023-01-08T16:12:33.794Z,14.22
2023-01-08T16:15:00.546Z,14.21
2023-01-08T16:17:29.997Z,14.35
2023-01-08T16:19:56.649Z,14.24
2023-01-08T16:22:23.368Z,14.20
2023-01-08T16:24:50.053Z,14.14
2023-01-08T16:27:16.931Z,14.15
2023-01-08T16:29:45.526Z,13.98
2023-01-08T16:32:12.350Z,14.17
2023-01-08T16:34:39.091Z,13.53
2023-01-08T16:37:05.898Z,13.91
2023-01-08T16:39:32.702Z,13.89
2023-01-08T16:42:03.177Z,13.76
2023-01-08T16:44:29.988Z,13.89
2023-01-08T16:46:56.952Z,13.83
2023-01-08T16:49:23.694Z,13.80
2023-01-08T16:51:50.921Z,13.96
2023-01-08T16:54:17.723Z,13.86
2023-01-08T16:56:47.161Z,13.79
2023-01-08T16:59:22.673Z,13.73
2023-01-08T17:01:49.830Z,13.97
2023-01-08T17:04:16.657Z,13.84
2023-01-08T17:06:43.315Z,13.47
2023-01-08T17:09:11.619Z,13.62
2023-01-08T17:11:38.764Z,13.82
2023-01-08T17:14:05.520Z,13.79
2023-01-08T17:16:32.403Z,13.77
2023-01-08T17:19:00.729Z,13.95
2023-01-08T17:21:27.455Z,13.84
2023-01-08T17:23:54.189Z,13.65
2023-01-08T17:26:21.008Z,13.68
2023-01-08T17:28:47.840Z,13.73
2023-01-08T17:31:16.163Z,13.66
2023-01-08T17:33:43.941Z,13.48
2023-01-08T17:36:14.718Z,13.49
2023-01-08T17:38:43.039Z,13.28
2023-01-08T17:41:12.377Z,13.11
2023-01-08T17:43:39.147Z,13.40
2023-01-08T17:46:07.191Z,13.11
2023-01-08T17:48:34.503Z,12.77
2023-01-08T17:51:06.441Z,12.82
2023-01-08T17:53:34.119Z,12.95
2023-01-08T17:56:05.225Z,12.86
2023-01-08T17:58:31.851Z,12.74
2023-01-08T18:00:58.550Z,12.92
2023-01-08T18:03:25.298Z,12.89
2023-01-08T18:05:51.960Z,12.94
2023-01-08T18:08:18.814Z,12.89
2023-01-08T18:10:45.633Z,12.84
2023-01-08T18:13:12.278Z,12.90
2023-01-08T18:15:38.966Z,12.94
2023-01-08T18:18:05.840Z,12.86
2023-01-08T18:20:32.596Z,12.90
2023-01-08T18:22:59.406Z,12.93
2023-01-08T18:25:26.116Z,12.64
2023-01-08T18:27:53.029Z,12.91
2023-01-08T18:30:19.944Z,13.00
2023-01-08T18:32:46.638Z,12.57
2023-01-08T18:35:15.275Z,12.33
2023-01-08T18:37:42.110Z,12.68
2023-01-08T18:40:09.165Z,12.69
2023-01-08T18:42:36.001Z,12.66
2023-01-08T18:45:04.333Z,12.40
2023-01-08T18:47:30.982Z,12.53
2023-01-08T18:50:00.087Z,12.71
2023-01-08T18:52:26.810Z,12.78
2023-01-08T18:54:53.786Z,12.76
2023-01-08T18:57:20.629Z,12.34
2023-01-08T18:59:49.178Z,12.54
2023-01-08T19:02:31.000Z,12.52
2023-01-08T19:04:57.686Z,12.49
2023-01-08T19:07:24.455Z,12.64
2023-01-08T19:09:51.143Z,12.59
2023-01-08T19:12:17.812Z,12.57
2023-01-08T19:14:46.389Z,12.56
2023-01-08T19:17:13.839Z,12.34
2023-01-08T19:19:40.561Z,12.24
2023-01-08T19:22:07.480Z,12.15
2023-01-08T19:24:36.455Z,12.22
2023-01-08T19:27:03.819Z,12.28
2023-01-08T19:29:30.481Z,12.50
2023-01-08T19:31:57.281Z,12.25
2023-01-08T19:34:24.329Z,12.47
2023-01-08T19:36:51.131Z,12.32
2023-01-08T19:39:20.635Z,11.82
2023-01-08T19:42:06.016Z,12.26
2023-01-08T19:44:32.799Z,12.11
2023-01-08T19:46:59.437Z,12.40
2023-01-08T19:49:26.249Z,12.15
2023-01-08T19:51:53.134Z,12.37
2023-01-08T19:54:29.096Z,12.15
2023-01-08T19:56:56.054Z,12.33
2023-01-08T19:59:22.797Z,12.35
2023-01-08T20:01:49.591Z,11.89
2023-01-08T20:04:16.290Z,12.07
2023-01-08T20:06:43.063Z,11.99
2023-01-08T20:09:09.937Z,11.98
2023-01-08T20:11:36.821Z,12.04
2023-01-08T20:14:05.674Z,12.13
2023-01-08T20:16:32.451Z,12.26
2023-01-08T20:19:03.587Z,12.27
2023-01-08T20:21:31.537Z,12.30
2023-01-08T20:23:59.816Z,12.30
2023-01-08T20:26:27.604Z,12.50
2023-01-08T20:28:55.250Z,12.60
2023-01-08T20:31:22.961Z,12.37
2023-01-08T20:33:49.838Z,12.53
2023-01-08T20:36:18.187Z,12.21
2023-01-08T20:38:45.438Z,12.30
2023-01-08T20:41:12.565Z,12.39
2023-01-08T20:43:40.277Z,12.28
2023-01-08T20:46:09.902Z,12.35
2023-01-08T20:48:42.909Z,12.30
2023-01-08T20:51:12.458Z,12.23
2023-01-08T20:53:39.857Z,12.42
2023-01-08T20:56:08.192Z,12.32
2023-01-08T20:58:37.048Z,12.27
2023-01-08T21:01:05.460Z,12.15
2023-01-08T21:03:34.590Z,12.40
2023-01-08T21:06:11.244Z,12.48
2023-01-08T21:08:38.028Z,12.43
2023-01-08T21:11:05.871Z,12.42
2023-01-08T21:13:33.675Z,12.48
2023-01-08T21:16:02.235Z,12.60
2023-01-08T21:18:29.449Z,12.62
2023-01-08T21:21:00.441Z,12.61
2023-01-08T21:23:30.433Z,12.59
2023-01-08T21:25:58.266Z,12.84
2023-01-08T21:28:26.021Z,12.66
2023-01-08T21:30:53.309Z,12.77
2023-01-08T21:33:20.464Z,12.70
2023-01-08T21:35:50.969Z,12.87
2023-01-08T21:38:19.416Z,12.69
2023-01-08T21:40:46.191Z,12.81
2023-01-08T21:43:31.490Z,12.70
2023-01-08T21:46:01.715Z,12.52
2023-01-08T21:48:29.376Z,12.78
2023-01-08T21:50:56.127Z,12.45
2023-01-08T21:53:31.884Z,12.94
2023-01-08T21:56:02.306Z,12.03
2023-01-08T21:58:29.660Z,12.32
2023-01-08T22:00:56.468Z,12.39
2023-01-08T22:03:23.569Z,12.56
2023-01-08T22:05:59.460Z,12.41
2023-01-08T22:08:28.262Z,12.52
2023-01-08T22:10:55.374Z,12.63
2023-01-08T22:13:22.035Z,12.53
2023-01-08T22:15:48.737Z,12.60
2023-01-08T22:18:15.872Z,12.43
2023-01-08T22:20:48.049Z,12.37
2023-01-08T22:23:14.868Z,12.44
2023-01-08T22:25:41.554Z,12.58
2023-01-08T22:28:09.423Z,12.52
2023-01-08T22:30:37.608Z,12.58
2023-01-08T22:33:04.392Z,12.17
2023-01-08T22:35:31.167Z,12.14
2023-01-08T22:37:57.856Z,12.42
2023-01-08T22:40:24.688Z,12.36
2023-01-08T22:42:51.366Z,12.34
2023-01-08T22:45:18.109Z,11.95
2023-01-08T22:47:45.052Z,12.53
2023-01-08T22:50:13.307Z,12.58
2023-01-08T22:52:40.147Z,11.79
2023-01-08T22:55:07.063Z,12.32
2023-01-08T22:57:34.001Z,12.00
2023-01-08T23:00:00.652Z,12.40
2023-01-08T23:02:27.360Z,12.21
2023-01-08T23:04:54.535Z,12.41
2023-01-08T23:07:21.516Z,12.37
2023-01-08T23:09:48.323Z,12.17
2023-01-08T23:12:15.200Z,12.58
2023-01-08T23:14:42.257Z,12.68
2023-01-08T23:17:09.547Z,12.50
2023-01-08T23:19:36.850Z,12.54
2023-01-08T23:22:03.761Z,12.50
2023-01-08T23:24:33.275Z,12.57
2023-01-08T23:26:59.952Z,12.56
2023-01-08T23:29:31.491Z,12.71
2023-01-08T23:31:58.307Z,12.66
2023-01-08T23:34:25.271Z,12.87
2023-01-08T23:36:52.141Z,12.61
2023-01-08T23:39:18.951Z,12.39
2023-01-08T23:41:45.656Z,12.43
2023-01-08T23:44:13.221Z,12.35
2023-01-08T23:46:39.944Z,12.48
2023-01-08T23:49:10.166Z,12.64
2023-01-08T23:51:37.674Z,12.61
2023-01-08T23:54:04.327Z,12.73
2023-01-08T23:56:32.000Z,12.66
2023-01-08T23:58:59.226Z,12.44
